AirNav  
 
 339 users online  

29VA Rhynalds Ranch Airport
Remington, Virginia, USA

GOING TO REMINGTON?


FAA INFORMATION EFFECTIVE 01 FEBRUARY 2018

Location

FAA Identifier: 29VA
Lat/Long: 38-31-45.4480N / 077-44-19.9700W
38-31.757467N / 077-44.332833W
38.5292911 / -77.7388806
(estimated)
Elevation: 285 ft. / 87 m (estimated)
Variation: 09W (1985)
From city: 4 miles E of REMINGTON, VA
Time zone: UTC -5 (UTC -4 during Daylight Saving Time)
Zip code: 22712

Airport Operations

Airport use: Private use. Permission required prior to landing
Activation date: 08/1985
Control tower: no
ARTCC: WASHINGTON CENTER
FSS: LEESBURG FLIGHT SERVICE STATION
Attendance: UNATNDD
Wind indicator: yes
Segmented circle: no

Airport Communications

WX AWOS-3 at HWY (4 nm N): 120.350 (540-788-4078)
WX AWOS-3 at CJR (6 nm W): 119.325 (540-727-0523)
WX AWOS-3 at RMN (15 nm SE): 126.325 (540-657-8283)
WX AWOS-3PT at HEF (16 nm NE): PHONE 703-361-6160

Nearby radio navigation aids

VOR radial/distance  VOR name  Freq  Var
CSNr145/9.0CASANOVA VORTAC116.3006W
BRVr312/21.5BROOKE VORTAC114.5009W
AMLr216/27.5ARMEL VOR/DME113.5008W
LDNr138/29.3LINDEN VORTAC114.3006W
GVEr038/36.6GORDONSVILLE VORTAC115.6006W
DCAr248/38.4WASHINGTON VOR/DME111.0009W

 
NDB name  Hdg/Dist  Freq  Var  ID
NAILR070/9.035110WMSQ -- ... --.-
SHANNON329/20.823710WEZF . --.. ..-.
GOODWIN LAKE178/25.822708WGDX --. -.. -..-
DAVEE264/30.522309WDAA -.. .- .-
CAVERNS116/35.924509WLUA .-.. ..- .-
OXONN258/36.233211WDCA -.. -.-. .-
GEORGETOWN239/37.532309WGTN --. - -.

Airport Services

Runway Information

Runway 10/28

Dimensions: 2500 x 120 ft. / 762 x 37 m
Surface: turf
RUNWAY 10  RUNWAY 28
Traffic pattern: leftright

Airport Ownership and Management from official FAA records

Ownership: Privately-owned
Owner: DON & DIANE W. RHYNALDS
5350 SAVANNAH BRANCH RD
BEALETON, VA 22712
Phone 540-439-8127
Manager: DON J. RHYNALDS
5350 SAVANNAH BRANCH RD
BEALETON, VA 22712
Phone 540-439-8127

Airport Operational Statistics

Aircraft based on the field: 1
Single engine airplanes: 1
    

Instrument Procedures

There are no published instrument procedures at 29VA.

Some nearby airports with instrument procedures:

KHWY - Warrenton-Fauquier Airport (4 nm N)
KCJR - Culpeper Regional Airport (6 nm W)
KRMN - Stafford Regional Airport (15 nm SE)
KHEF - Manassas Regional Airport/Harry P. Davis Field (16 nm NE)
KNYG - Quantico Marine Corps Airfield / Turner Field (20 nm E)
 
Loc | Ops | Rwys | IFR | FBO | Links
Com | Nav | Svcs | Stats | Notes

AirNav Hotels Sweepstakes
 
Area around 29VA (Rhynalds Ranch Airport)
 
Road maps at: MapQuest Bing Google
 
Aerial photo
No photo
 
Sectional chart

 
Airport distance calculator
Flying to Rhynalds Ranch Airport? Find the distance to fly.

From to 29VA

Sunrise and sunset
Times for 19-Feb-2018
 Local
(UTC-5)
 Zulu
(UTC)
Morning civil twilight06:3111:31
Sunrise06:5811:58
Sunset17:5222:52
Evening civil twilight18:1923:19

Current date and time
Zulu (UTC)  19-Feb-2018 07:57:06
Local (UTC-5)  19-Feb-2018 02:57:06
 
METAR
KHWY 
4nm N 
190735Z AUTO 18004KT 10SM SCT033 OVC048 05/M01 A3046 RMK AO2 T00481008
KHEF 
15nm NE 
190656Z AUTO 16007KT 10SM OVC046 03/01 A3049 RMK AO2 SLP337 T00330011
KRMN 
15nm SE 
190735Z AUTO 00000KT 10SM BKN050 02/02 A3052 RMK AO2 T00180018
KCJR 
19nm W 
190735Z AUTO 00000KT 10SM SCT032 OVC048 04/00 A3048 RMK AO2 T00410001
TAF
KNYG 
21nm E 
1821/1921 12006KT 9999 FEW050 SCT250 QNH3041INS BECMG 1906/1910 18008KT 9999 SCT040 SCT250 QNH3046INS BECMG 1912/1916 18008KT 8000 SHRA BKN030 BKN070 621404 QNH3037INS FM191600 19006KT 9999 SCT030 BKN070 BK250 600000 QNH3035INS T02/1909Z T12/1920Z
NOTAMs
Click for the latest NOTAMs
NOTAMs are issued by the DoD/FAA and will open in a separate window not controlled by AirNav.

 

 
 

Would you like to see your business listed on this page?

 If your business provides an interesting product or service to pilots, flight crews, aircraft, or users of the Rhynalds Ranch Airport, you should consider listing it here.  To start the listing process, click on the button below
 
Add a business
 

Other Pages about Rhynalds Ranch Airport

Update a link
 
Copyright © AirNav, LLC. All rights reserved. Privacy Policy  Contact